St. Catharines Fifth St

*Note: All times are displayed in the local standard time of the station location.
**Rain - Equipment is designed to accurately record liquid precipitation; under conditions when precipitation is not in liquid form, the data displayed may not properly reflect rainfall values.

Date Max Temp
(°C)
Min Temp
(°C)
Avg Temp
(°C)
Rain (mm) Avg RH (%)
Fri, Feb 15, 2019 5.1 -4.5 0.8 - 75.2
Thu, Feb 14, 2019 3.6 -4.8 -1.1 - 73.8
Wed, Feb 13, 2019 0.9 -4.8 -2.7 - 80.1
Tue, Feb 12, 2019 2.9 -5.4 -2.2 - 88.9
Mon, Feb 11, 2019 -1.9 -4.9 -3.6 - 73.9
Sun, Feb 10, 2019 -2.5 -10.5 -6.2 - 74.0
Sat, Feb 09, 2019 -4.4 -10.1 -7.1 - 65.3
DateTime Avg Temp (°C) Rain (mm) RH (%)
Sat, Feb 16, 2019 16:00 -2.0 - 59.0
Sat, Feb 16, 2019 15:00 -2.1 - 60.8
Sat, Feb 16, 2019 14:00 -2.3 - 61.8
Sat, Feb 16, 2019 13:00 -2.5 - 61.7
Sat, Feb 16, 2019 12:00 -2.8 - 62.1
Sat, Feb 16, 2019 11:00 -3.9 - 64.1
Sat, Feb 16, 2019 10:00 -3.9 - 65.0
Sat, Feb 16, 2019 09:00 -3.5 - 61.6
Sat, Feb 16, 2019 08:00 -4.3 - 66.3
Sat, Feb 16, 2019 07:00 -4.2 - 71.0
Sat, Feb 16, 2019 06:00 -3.7 - 76.3
Sat, Feb 16, 2019 05:00 -3.7 - 80.5
Sat, Feb 16, 2019 04:00 -3.8 - 79.3
Sat, Feb 16, 2019 03:00 -3.9 - 78.5
Sat, Feb 16, 2019 02:00 -3.9 - 75.7
Sat, Feb 16, 2019 01:00 -4.1 - 73.7
Sat, Feb 16, 2019 00:00 -4.2 - 72.5
Fri, Feb 15, 2019 23:00 -4.5 - 71.4
Fri, Feb 15, 2019 22:00 -4.1 - 69.9
Fri, Feb 15, 2019 21:00 -3.5 - 67.1
Fri, Feb 15, 2019 20:00 -2.6 - 69.5
Fri, Feb 15, 2019 19:00 -2.1 - 66.2
Fri, Feb 15, 2019 18:00 -1.5 - 66.6
Fri, Feb 15, 2019 17:00 -0.6 - 64.5
Fri, Feb 15, 2019 16:00 0.0 - 67.4
Fri, Feb 15, 2019 15:00 0.4 - 67.6
Fri, Feb 15, 2019 14:00 1.4 - 64.4
Fri, Feb 15, 2019 13:00 2.0 - 64.0
Fri, Feb 15, 2019 12:00 2.5 - 70.1
Fri, Feb 15, 2019 11:00 3.5 - 74.1
Fri, Feb 15, 2019 10:00 4.2 - 83.7
Fri, Feb 15, 2019 09:00 3.7 - 90.8
Fri, Feb 15, 2019 08:00 4.0 - 89.2
Fri, Feb 15, 2019 07:00 3.8 - 91.7
Fri, Feb 15, 2019 06:00 3.9 - 91.0
Fri, Feb 15, 2019 05:00 4.0 - 88.6
Fri, Feb 15, 2019 04:00 4.7 - 78.4
Fri, Feb 15, 2019 03:00 4.6 - 69.5
Fri, Feb 15, 2019 02:00 0.4 - 82.8
Fri, Feb 15, 2019 01:00 0.3 - 83.3
Fri, Feb 15, 2019 00:00 0.1 - 83.7
Thu, Feb 14, 2019 23:00 0.4 - 80.5
Thu, Feb 14, 2019 22:00 1.3 - 74.7
Thu, Feb 14, 2019 21:00 -1.2 - 86.1
Thu, Feb 14, 2019 20:00 -0.9 - 82.0
Thu, Feb 14, 2019 19:00 -0.3 - 75.9
Thu, Feb 14, 2019 18:00 1.1 - 67.5
Thu, Feb 14, 2019 17:00 2.3 - 62.9


asterix Register now to access more data! asterix